sensor_id;sensor_type;location;lat;lon;timestamp;P1;durP1;ratioP1;P2;durP2;ratioP2
7997;SDS011;4044;49.814;7.828;2022-07-23T00:00:10;7.72;;;7.03;;
7997;SDS011;4044;49.814;7.828;2022-07-23T00:02:36;7.43;;;6.82;;
7997;SDS011;4044;49.814;7.828;2022-07-23T00:05:02;7.70;;;7.00;;
7997;SDS011;4044;49.814;7.828;2022-07-23T00:07:28;7.95;;;7.25;;
7997;SDS011;4044;49.814;7.828;2022-07-23T00:09:53;8.23;;;7.53;;
7997;SDS011;4044;49.814;7.828;2022-07-23T00:12:19;7.60;;;6.85;;
7997;SDS011;4044;49.814;7.828;2022-07-23T00:14:45;7.30;;;6.70;;
7997;SDS011;4044;49.814;7.828;2022-07-23T00:17:11;8.25;;;7.45;;
7997;SDS011;4044;49.814;7.828;2022-07-23T00:19:36;7.32;;;6.82;;
7997;SDS011;4044;49.814;7.828;2022-07-23T00:22:02;7.90;;;7.30;;
7997;SDS011;4044;49.814;7.828;2022-07-23T00:24:27;8.20;;;7.28;;
7997;SDS011;4044;49.814;7.828;2022-07-23T00:26:53;7.97;;;7.13;;
7997;SDS011;4044;49.814;7.828;2022-07-23T00:29:18;8.85;;;7.95;;
7997;SDS011;4044;49.814;7.828;2022-07-23T00:31:44;8.77;;;7.88;;
7997;SDS011;4044;49.814;7.828;2022-07-23T00:34:09;8.73;;;7.93;;
7997;SDS011;4044;49.814;7.828;2022-07-23T00:36:35;8.45;;;7.72;;
7997;SDS011;4044;49.814;7.828;2022-07-23T00:39:00;8.40;;;7.70;;
7997;SDS011;4044;49.814;7.828;2022-07-23T00:41:26;9.30;;;8.40;;
7997;SDS011;4044;49.814;7.828;2022-07-23T00:43:51;9.45;;;8.07;;
7997;SDS011;4044;49.814;7.828;2022-07-23T00:46:20;9.77;;;8.77;;
7997;SDS011;4044;49.814;7.828;2022-07-23T00:48:46;9.73;;;8.82;;
7997;SDS011;4044;49.814;7.828;2022-07-23T00:51:12;9.35;;;8.45;;
7997;SDS011;4044;49.814;7.828;2022-07-23T00:53:39;10.02;;;9.20;;
7997;SDS011;4044;49.814;7.828;2022-07-23T00:56:05;10.68;;;9.60;;
7997;SDS011;4044;49.814;7.828;2022-07-23T00:58:31;10.68;;;9.63;;
7997;SDS011;4044;49.814;7.828;2022-07-23T01:01:00;10.32;;;9.52;;
7997;SDS011;4044;49.814;7.828;2022-07-23T01:03:25;10.77;;;9.68;;
7997;SDS011;4044;49.814;7.828;2022-07-23T01:05:51;10.75;;;9.75;;
7997;SDS011;4044;49.814;7.828;2022-07-23T01:08:17;10.85;;;9.75;;
7997;SDS011;4044;49.814;7.828;2022-07-23T01:10:43;10.40;;;9.45;;
7997;SDS011;4044;49.814;7.828;2022-07-23T01:13:09;10.52;;;9.52;;
7997;SDS011;4044;49.814;7.828;2022-07-23T01:15:35;10.93;;;10.02;;
7997;SDS011;4044;49.814;7.828;2022-07-23T01:18:03;10.38;;;9.43;;
7997;SDS011;4044;49.814;7.828;2022-07-23T01:20:30;9.75;;;8.85;;
7997;SDS011;4044;49.814;7.828;2022-07-23T01:22:55;10.75;;;9.75;;
7997;SDS011;4044;49.814;7.828;2022-07-23T01:25:21;11.23;;;10.15;;
7997;SDS011;4044;49.814;7.828;2022-07-23T01:27:48;10.75;;;9.77;;
7997;SDS011;4044;49.814;7.828;2022-07-23T01:30:13;9.98;;;8.98;;
7997;SDS011;4044;49.814;7.828;2022-07-23T01:32:39;10.07;;;9.18;;
7997;SDS011;4044;49.814;7.828;2022-07-23T01:35:05;10.50;;;9.60;;
7997;SDS011;4044;49.814;7.828;2022-07-23T01:37:32;11.73;;;10.13;;
7997;SDS011;4044;49.814;7.828;2022-07-23T01:39:57;10.63;;;9.60;;
7997;SDS011;4044;49.814;7.828;2022-07-23T01:42:23;10.77;;;9.73;;
7997;SDS011;4044;49.814;7.828;2022-07-23T01:44:50;10.65;;;9.73;;
7997;SDS011;4044;49.814;7.828;2022-07-23T01:47:15;11.38;;;10.23;;
7997;SDS011;4044;49.814;7.828;2022-07-23T01:49:41;11.15;;;10.20;;
7997;SDS011;4044;49.814;7.828;2022-07-23T01:52:07;11.60;;;10.45;;
7997;SDS011;4044;49.814;7.828;2022-07-23T01:54:35;9.90;;;9.10;;
7997;SDS011;4044;49.814;7.828;2022-07-23T01:57:02;10.40;;;9.48;;
7997;SDS011;4044;49.814;7.828;2022-07-23T01:59:28;11.20;;;9.85;;
7997;SDS011;4044;49.814;7.828;2022-07-23T02:01:54;10.48;;;9.50;;
7997;SDS011;4044;49.814;7.828;2022-07-23T02:04:20;10.38;;;9.57;;
7997;SDS011;4044;49.814;7.828;2022-07-23T02:06:47;10.50;;;9.52;;
7997;SDS011;4044;49.814;7.828;2022-07-23T02:09:12;10.20;;;9.23;;
7997;SDS011;4044;49.814;7.828;2022-07-23T02:11:38;11.05;;;9.95;;
7997;SDS011;4044;49.814;7.828;2022-07-23T02:14:03;10.85;;;9.90;;
7997;SDS011;4044;49.814;7.828;2022-07-23T02:16:29;10.27;;;9.38;;
7997;SDS011;4044;49.814;7.828;2022-07-23T02:18:55;11.13;;;10.02;;
7997;SDS011;4044;49.814;7.828;2022-07-23T02:21:20;10.55;;;9.60;;
7997;SDS011;4044;49.814;7.828;2022-07-23T02:23:46;10.60;;;9.60;;
7997;SDS011;4044;49.814;7.828;2022-07-23T02:26:11;10.18;;;9.35;;
7997;SDS011;4044;49.814;7.828;2022-07-23T02:28:37;10.48;;;9.48;;
7997;SDS011;4044;49.814;7.828;2022-07-23T02:31:02;10.07;;;9.23;;
7997;SDS011;4044;49.814;7.828;2022-07-23T02:33:28;10.63;;;9.57;;
7997;SDS011;4044;49.814;7.828;2022-07-23T02:35:54;10.20;;;9.27;;
7997;SDS011;4044;49.814;7.828;2022-07-23T02:38:19;10.82;;;9.82;;
7997;SDS011;4044;49.814;7.828;2022-07-23T02:40:45;9.93;;;9.07;;
7997;SDS011;4044;49.814;7.828;2022-07-23T02:43:11;10.23;;;9.32;;
7997;SDS011;4044;49.814;7.828;2022-07-23T02:45:36;13.02;;;9.90;;
7997;SDS011;4044;49.814;7.828;2022-07-23T02:48:02;11.45;;;10.30;;
7997;SDS011;4044;49.814;7.828;2022-07-23T02:50:27;10.93;;;9.93;;
7997;SDS011;4044;49.814;7.828;2022-07-23T02:52:53;11.15;;;9.95;;
7997;SDS011;4044;49.814;7.828;2022-07-23T02:55:18;11.90;;;10.90;;
7997;SDS011;4044;49.814;7.828;2022-07-23T02:57:44;11.18;;;10.18;;
7997;SDS011;4044;49.814;7.828;2022-07-23T03:00:10;10.93;;;9.93;;
7997;SDS011;4044;49.814;7.828;2022-07-23T03:02:35;10.52;;;9.52;;
7997;SDS011;4044;49.814;7.828;2022-07-23T03:05:01;10.52;;;9.43;;
7997;SDS011;4044;49.814;7.828;2022-07-23T03:07:27;10.35;;;9.30;;
7997;SDS011;4044;49.814;7.828;2022-07-23T03:09:52;11.55;;;10.45;;
7997;SDS011;4044;49.814;7.828;2022-07-23T03:12:18;11.30;;;10.30;;
7997;SDS011;4044;49.814;7.828;2022-07-23T03:14:43;10.50;;;9.35;;
7997;SDS011;4044;49.814;7.828;2022-07-23T03:17:09;10.68;;;9.68;;
7997;SDS011;4044;49.814;7.828;2022-07-23T03:19:35;10.95;;;10.05;;
7997;SDS011;4044;49.814;7.828;2022-07-23T03:22:01;10.75;;;9.77;;
7997;SDS011;4044;49.814;7.828;2022-07-23T03:24:27;11.48;;;10.48;;
7997;SDS011;4044;49.814;7.828;2022-07-23T03:27:12;10.98;;;10.00;;
7997;SDS011;4044;49.814;7.828;2022-07-23T03:29:38;10.48;;;9.52;;
7997;SDS011;4044;49.814;7.828;2022-07-23T03:32:03;11.05;;;10.15;;
7997;SDS011;4044;49.814;7.828;2022-07-23T03:34:29;10.85;;;9.68;;
7997;SDS011;4044;49.814;7.828;2022-07-23T03:36:55;11.45;;;10.45;;
7997;SDS011;4044;49.814;7.828;2022-07-23T03:39:20;10.85;;;9.85;;
7997;SDS011;4044;49.814;7.828;2022-07-23T03:41:46;11.50;;;10.40;;
7997;SDS011;4044;49.814;7.828;2022-07-23T03:44:11;11.43;;;10.43;;
7997;SDS011;4044;49.814;7.828;2022-07-23T03:46:37;11.07;;;9.98;;
7997;SDS011;4044;49.814;7.828;2022-07-23T03:49:02;10.43;;;9.63;;
7997;SDS011;4044;49.814;7.828;2022-07-23T03:51:28;11.18;;;10.07;;
7997;SDS011;4044;49.814;7.828;2022-07-23T03:53:53;10.88;;;9.98;;
7997;SDS011;4044;49.814;7.828;2022-07-23T03:56:20;11.90;;;10.50;;
7997;SDS011;4044;49.814;7.828;2022-07-23T03:58:46;11.63;;;9.85;;
7997;SDS011;4044;49.814;7.828;2022-07-23T04:01:11;11.82;;;10.75;;
7997;SDS011;4044;49.814;7.828;2022-07-23T04:03:37;11.65;;;10.55;;
7997;SDS011;4044;49.814;7.828;2022-07-23T04:06:02;11.80;;;10.80;;
7997;SDS011;4044;49.814;7.828;2022-07-23T04:08:28;10.85;;;9.95;;
7997;SDS011;4044;49.814;7.828;2022-07-23T04:10:54;10.88;;;9.73;;
7997;SDS011;4044;49.814;7.828;2022-07-23T04:13:20;10.90;;;9.82;;
7997;SDS011;4044;49.814;7.828;2022-07-23T04:15:45;10.80;;;9.80;;
7997;SDS011;4044;49.814;7.828;2022-07-23T04:18:11;10.77;;;9.93;;
7997;SDS011;4044;49.814;7.828;2022-07-23T04:20:37;11.02;;;10.02;;
7997;SDS011;4044;49.814;7.828;2022-07-23T04:23:02;10.80;;;9.98;;
7997;SDS011;4044;49.814;7.828;2022-07-23T04:25:28;11.18;;;10.13;;
7997;SDS011;4044;49.814;7.828;2022-07-23T04:27:53;10.48;;;9.65;;
7997;SDS011;4044;49.814;7.828;2022-07-23T04:30:19;10.60;;;9.70;;
7997;SDS011;4044;49.814;7.828;2022-07-23T04:32:44;10.07;;;9.27;;
7997;SDS011;4044;49.814;7.828;2022-07-23T04:35:10;10.43;;;9.52;;
7997;SDS011;4044;49.814;7.828;2022-07-23T04:37:35;10.48;;;9.57;;
7997;SDS011;4044;49.814;7.828;2022-07-23T04:40:01;10.20;;;9.30;;
7997;SDS011;4044;49.814;7.828;2022-07-23T04:42:26;10.80;;;9.82;;
7997;SDS011;4044;49.814;7.828;2022-07-23T04:44:52;10.88;;;9.82;;
7997;SDS011;4044;49.814;7.828;2022-07-23T04:47:17;10.90;;;9.90;;
7997;SDS011;4044;49.814;7.828;2022-07-23T04:49:43;10.80;;;9.93;;
7997;SDS011;4044;49.814;7.828;2022-07-23T04:52:09;10.73;;;9.77;;
7997;SDS011;4044;49.814;7.828;2022-07-23T04:54:34;10.50;;;9.70;;
7997;SDS011;4044;49.814;7.828;2022-07-23T04:57:00;10.77;;;9.88;;
7997;SDS011;4044;49.814;7.828;2022-07-23T04:59:25;11.90;;;10.73;;
7997;SDS011;4044;49.814;7.828;2022-07-23T05:01:51;11.75;;;10.57;;
7997;SDS011;4044;49.814;7.828;2022-07-23T05:04:16;11.98;;;10.70;;
7997;SDS011;4044;49.814;7.828;2022-07-23T05:06:42;10.77;;;9.77;;
7997;SDS011;4044;49.814;7.828;2022-07-23T05:09:07;10.90;;;9.80;;
7997;SDS011;4044;49.814;7.828;2022-07-23T05:11:33;12.20;;;11.10;;
7997;SDS011;4044;49.814;7.828;2022-07-23T05:13:58;11.48;;;10.50;;
7997;SDS011;4044;49.814;7.828;2022-07-23T05:16:24;12.02;;;10.93;;
7997;SDS011;4044;49.814;7.828;2022-07-23T05:18:49;11.65;;;10.70;;
7997;SDS011;4044;49.814;7.828;2022-07-23T05:21:14;11.70;;;10.68;;
7997;SDS011;4044;49.814;7.828;2022-07-23T05:23:40;11.85;;;10.75;;
7997;SDS011;4044;49.814;7.828;2022-07-23T05:26:05;11.20;;;10.10;;
7997;SDS011;4044;49.814;7.828;2022-07-23T05:28:31;11.10;;;10.20;;
7997;SDS011;4044;49.814;7.828;2022-07-23T05:30:56;10.75;;;9.82;;
7997;SDS011;4044;49.814;7.828;2022-07-23T05:33:22;10.95;;;9.95;;
7997;SDS011;4044;49.814;7.828;2022-07-23T05:35:48;10.80;;;9.90;;
7997;SDS011;4044;49.814;7.828;2022-07-23T05:38:13;10.85;;;9.88;;
7997;SDS011;4044;49.814;7.828;2022-07-23T05:40:39;10.65;;;9.75;;
7997;SDS011;4044;49.814;7.828;2022-07-23T05:43:04;11.25;;;10.05;;
7997;SDS011;4044;49.814;7.828;2022-07-23T05:45:30;11.55;;;10.35;;
7997;SDS011;4044;49.814;7.828;2022-07-23T05:47:55;11.80;;;10.63;;
7997;SDS011;4044;49.814;7.828;2022-07-23T05:50:21;11.57;;;10.57;;
7997;SDS011;4044;49.814;7.828;2022-07-23T05:52:46;11.57;;;10.55;;
7997;SDS011;4044;49.814;7.828;2022-07-23T05:55:12;10.48;;;9.60;;
7997;SDS011;4044;49.814;7.828;2022-07-23T05:57:38;11.45;;;10.52;;
7997;SDS011;4044;49.814;7.828;2022-07-23T06:00:05;10.45;;;9.57;;
7997;SDS011;4044;49.814;7.828;2022-07-23T06:02:31;10.38;;;9.48;;
7997;SDS011;4044;49.814;7.828;2022-07-23T06:04:57;10.90;;;9.98;;
7997;SDS011;4044;49.814;7.828;2022-07-23T06:07:22;11.52;;;10.52;;
7997;SDS011;4044;49.814;7.828;2022-07-23T06:09:48;10.68;;;9.77;;
7997;SDS011;4044;49.814;7.828;2022-07-23T06:12:14;10.88;;;9.77;;
7997;SDS011;4044;49.814;7.828;2022-07-23T06:14:43;10.65;;;9.65;;
7997;SDS011;4044;49.814;7.828;2022-07-23T06:17:08;11.38;;;10.27;;
7997;SDS011;4044;49.814;7.828;2022-07-23T06:19:34;10.88;;;9.98;;
7997;SDS011;4044;49.814;7.828;2022-07-23T06:22:00;10.57;;;9.73;;
7997;SDS011;4044;49.814;7.828;2022-07-23T06:24:25;12.32;;;9.80;;
7997;SDS011;4044;49.814;7.828;2022-07-23T06:26:51;10.80;;;9.80;;
7997;SDS011;4044;49.814;7.828;2022-07-23T06:29:16;10.32;;;9.43;;
7997;SDS011;4044;49.814;7.828;2022-07-23T06:31:42;10.57;;;9.70;;
7997;SDS011;4044;49.814;7.828;2022-07-23T06:34:07;10.27;;;9.38;;
7997;SDS011;4044;49.814;7.828;2022-07-23T06:36:33;10.82;;;9.82;;
7997;SDS011;4044;49.814;7.828;2022-07-23T06:38:58;10.48;;;9.57;;
7997;SDS011;4044;49.814;7.828;2022-07-23T06:41:24;10.50;;;9.55;;
7997;SDS011;4044;49.814;7.828;2022-07-23T06:43:49;12.23;;;9.15;;
7997;SDS011;4044;49.814;7.828;2022-07-23T06:46:15;10.27;;;9.23;;
7997;SDS011;4044;49.814;7.828;2022-07-23T06:48:40;10.27;;;9.27;;
7997;SDS011;4044;49.814;7.828;2022-07-23T06:51:06;10.43;;;9.43;;
7997;SDS011;4044;49.814;7.828;2022-07-23T06:53:31;10.63;;;9.63;;
7997;SDS011;4044;49.814;7.828;2022-07-23T06:55:57;9.60;;;8.65;;
7997;SDS011;4044;49.814;7.828;2022-07-23T06:58:22;10.23;;;9.32;;
7997;SDS011;4044;49.814;7.828;2022-07-23T07:00:48;9.68;;;8.77;;
7997;SDS011;4044;49.814;7.828;2022-07-23T07:03:13;10.13;;;9.25;;
7997;SDS011;4044;49.814;7.828;2022-07-23T07:05:39;10.10;;;8.75;;
7997;SDS011;4044;49.814;7.828;2022-07-23T07:08:05;9.65;;;8.73;;
7997;SDS011;4044;49.814;7.828;2022-07-23T07:10:31;9.52;;;8.73;;
7997;SDS011;4044;49.814;7.828;2022-07-23T07:12:56;10.50;;;9.48;;
7997;SDS011;4044;49.814;7.828;2022-07-23T07:15:22;10.10;;;9.23;;
7997;SDS011;4044;49.814;7.828;2022-07-23T07:17:48;9.98;;;9.18;;
7997;SDS011;4044;49.814;7.828;2022-07-23T07:20:13;9.68;;;8.63;;
7997;SDS011;4044;49.814;7.828;2022-07-23T07:22:39;9.85;;;8.85;;
7997;SDS011;4044;49.814;7.828;2022-07-23T07:25:05;10.07;;;9.20;;
7997;SDS011;4044;49.814;7.828;2022-07-23T07:27:31;10.43;;;9.50;;
7997;SDS011;4044;49.814;7.828;2022-07-23T07:29:56;10.07;;;9.20;;
7997;SDS011;4044;49.814;7.828;2022-07-23T07:32:22;11.00;;;10.10;;
7997;SDS011;4044;49.814;7.828;2022-07-23T07:34:47;10.18;;;9.23;;
7997;SDS011;4044;49.814;7.828;2022-07-23T07:37:13;12.77;;;9.40;;
7997;SDS011;4044;49.814;7.828;2022-07-23T07:39:38;10.35;;;9.40;;
7997;SDS011;4044;49.814;7.828;2022-07-23T07:42:04;10.07;;;9.18;;
7997;SDS011;4044;49.814;7.828;2022-07-23T07:44:30;9.77;;;8.88;;
7997;SDS011;4044;49.814;7.828;2022-07-23T07:46:55;9.13;;;8.35;;
7997;SDS011;4044;49.814;7.828;2022-07-23T07:49:21;9.93;;;9.13;;
7997;SDS011;4044;49.814;7.828;2022-07-23T07:51:46;9.73;;;8.93;;
7997;SDS011;4044;49.814;7.828;2022-07-23T07:54:12;9.15;;;8.38;;
7997;SDS011;4044;49.814;7.828;2022-07-23T07:56:38;9.63;;;8.82;;
7997;SDS011;4044;49.814;7.828;2022-07-23T07:59:03;9.35;;;8.55;;
7997;SDS011;4044;49.814;7.828;2022-07-23T08:01:29;10.30;;;9.30;;
7997;SDS011;4044;49.814;7.828;2022-07-23T08:03:55;9.95;;;9.05;;
7997;SDS011;4044;49.814;7.828;2022-07-23T08:06:21;10.60;;;9.50;;
7997;SDS011;4044;49.814;7.828;2022-07-23T08:08:46;9.70;;;8.80;;
7997;SDS011;4044;49.814;7.828;2022-07-23T08:11:12;9.88;;;9.07;;
7997;SDS011;4044;49.814;7.828;2022-07-23T08:13:37;9.63;;;8.82;;
7997;SDS011;4044;49.814;7.828;2022-07-23T08:16:03;10.23;;;9.32;;
7997;SDS011;4044;49.814;7.828;2022-07-23T08:18:29;8.80;;;7.97;;
7997;SDS011;4044;49.814;7.828;2022-07-23T08:20:54;8.75;;;8.05;;
7997;SDS011;4044;49.814;7.828;2022-07-23T08:23:20;8.65;;;7.85;;
7997;SDS011;4044;49.814;7.828;2022-07-23T08:25:45;10.35;;;9.20;;
7997;SDS011;4044;49.814;7.828;2022-07-23T08:28:12;9.55;;;8.70;;
7997;SDS011;4044;49.814;7.828;2022-07-23T08:30:39;9.35;;;8.43;;
7997;SDS011;4044;49.814;7.828;2022-07-23T08:33:08;8.85;;;8.05;;
7997;SDS011;4044;49.814;7.828;2022-07-23T08:35:48;9.20;;;8.40;;
7997;SDS011;4044;49.814;7.828;2022-07-23T08:38:15;9.20;;;8.32;;
7997;SDS011;4044;49.814;7.828;2022-07-23T08:40:43;9.13;;;8.23;;
7997;SDS011;4044;49.814;7.828;2022-07-23T08:43:12;9.23;;;8.43;;
7997;SDS011;4044;49.814;7.828;2022-07-23T08:45:41;8.70;;;8.00;;
7997;SDS011;4044;49.814;7.828;2022-07-23T08:48:09;8.63;;;7.82;;
7997;SDS011;4044;49.814;7.828;2022-07-23T08:50:37;9.00;;;8.20;;
7997;SDS011;4044;49.814;7.828;2022-07-23T08:53:07;8.77;;;8.07;;
7997;SDS011;4044;49.814;7.828;2022-07-23T08:55:33;8.88;;;8.07;;
7997;SDS011;4044;49.814;7.828;2022-07-23T08:57:59;8.68;;;7.97;;
7997;SDS011;4044;49.814;7.828;2022-07-23T09:00:25;8.32;;;7.53;;
7997;SDS011;4044;49.814;7.828;2022-07-23T09:02:51;9.25;;;8.45;;
7997;SDS011;4044;49.814;7.828;2022-07-23T09:05:16;8.63;;;7.82;;
7997;SDS011;4044;49.814;7.828;2022-07-23T09:18:38;8.85;;;8.18;;
7997;SDS011;4044;49.814;7.828;2022-07-23T09:21:06;7.85;;;7.20;;
7997;SDS011;4044;49.814;7.828;2022-07-23T09:23:37;8.35;;;7.68;;
7997;SDS011;4044;49.814;7.828;2022-07-23T09:29:07;8.10;;;7.40;;
7997;SDS011;4044;49.814;7.828;2022-07-23T09:31:52;7.43;;;6.82;;
7997;SDS011;4044;49.814;7.828;2022-07-23T09:34:21;7.65;;;6.95;;
7997;SDS011;4044;49.814;7.828;2022-07-23T09:36:49;7.90;;;7.38;;
7997;SDS011;4044;49.814;7.828;2022-07-23T09:39:22;7.88;;;7.28;;
7997;SDS011;4044;49.814;7.828;2022-07-23T09:41:52;8.50;;;7.80;;
7997;SDS011;4044;49.814;7.828;2022-07-23T09:44:19;8.00;;;7.30;;
7997;SDS011;4044;49.814;7.828;2022-07-23T09:46:46;8.13;;;7.43;;
7997;SDS011;4044;49.814;7.828;2022-07-23T09:49:17;7.50;;;6.85;;
7997;SDS011;4044;49.814;7.828;2022-07-23T09:51:44;7.72;;;7.20;;
7997;SDS011;4044;49.814;7.828;2022-07-23T09:54:34;8.07;;;7.40;;
7997;SDS011;4044;49.814;7.828;2022-07-23T09:57:09;7.32;;;6.72;;
7997;SDS011;4044;49.814;7.828;2022-07-23T09:59:40;7.47;;;6.97;;
7997;SDS011;4044;49.814;7.828;2022-07-23T10:02:08;7.25;;;6.55;;
7997;SDS011;4044;49.814;7.828;2022-07-23T10:04:35;7.95;;;7.20;;
7997;SDS011;4044;49.814;7.828;2022-07-23T10:07:03;7.70;;;7.10;;
7997;SDS011;4044;49.814;7.828;2022-07-23T10:09:31;7.57;;;7.05;;
7997;SDS011;4044;49.814;7.828;2022-07-23T10:11:59;7.38;;;6.78;;
7997;SDS011;4044;49.814;7.828;2022-07-23T10:14:46;7.70;;;6.97;;
7997;SDS011;4044;49.814;7.828;2022-07-23T10:17:12;7.40;;;6.90;;
7997;SDS011;4044;49.814;7.828;2022-07-23T10:19:38;7.43;;;6.85;;
7997;SDS011;4044;49.814;7.828;2022-07-23T10:22:06;8.20;;;7.40;;
7997;SDS011;4044;49.814;7.828;2022-07-23T10:30:05;6.75;;;6.25;;
7997;SDS011;4044;49.814;7.828;2022-07-23T10:32:49;7.28;;;6.68;;
7997;SDS011;4044;49.814;7.828;2022-07-23T10:35:39;7.18;;;6.57;;
7997;SDS011;4044;49.814;7.828;2022-07-23T10:38:27;6.80;;;6.20;;
7997;SDS011;4044;49.814;7.828;2022-07-23T10:41:01;7.57;;;6.32;;
7997;SDS011;4044;49.814;7.828;2022-07-23T10:43:29;6.78;;;6.15;;
7997;SDS011;4044;49.814;7.828;2022-07-23T10:45:55;6.80;;;6.30;;
7997;SDS011;4044;49.814;7.828;2022-07-23T10:48:25;6.80;;;6.30;;
7997;SDS011;4044;49.814;7.828;2022-07-23T10:51:15;6.90;;;6.40;;
7997;SDS011;4044;49.814;7.828;2022-07-23T10:53:54;6.50;;;6.00;;
7997;SDS011;4044;49.814;7.828;2022-07-23T10:56:48;6.65;;;6.00;;
7997;SDS011;4044;49.814;7.828;2022-07-23T10:59:30;6.95;;;6.25;;
7997;SDS011;4044;49.814;7.828;2022-07-23T11:02:20;7.30;;;6.70;;
7997;SDS011;4044;49.814;7.828;2022-07-23T11:04:49;7.25;;;6.63;;
7997;SDS011;4044;49.814;7.828;2022-07-23T11:07:16;7.40;;;6.90;;
7997;SDS011;4044;49.814;7.828;2022-07-23T11:09:42;6.70;;;6.10;;
7997;SDS011;4044;49.814;7.828;2022-07-23T11:17:31;9.35;;;6.20;;
7997;SDS011;4044;49.814;7.828;2022-07-23T11:25:04;6.60;;;6.10;;
7997;SDS011;4044;49.814;7.828;2022-07-23T11:27:40;6.78;;;6.18;;
7997;SDS011;4044;49.814;7.828;2022-07-23T11:30:12;6.97;;;6.38;;
7997;SDS011;4044;49.814;7.828;2022-07-23T11:35:36;7.32;;;6.75;;
7997;SDS011;4044;49.814;7.828;2022-07-23T11:40:37;6.32;;;5.72;;
7997;SDS011;4044;49.814;7.828;2022-07-23T11:43:05;6.22;;;5.75;;
7997;SDS011;4044;49.814;7.828;2022-07-23T11:45:39;6.50;;;5.90;;
7997;SDS011;4044;49.814;7.828;2022-07-23T11:48:08;6.97;;;6.07;;
7997;SDS011;4044;49.814;7.828;2022-07-23T11:50:39;6.72;;;6.18;;
7997;SDS011;4044;49.814;7.828;2022-07-23T11:53:05;6.50;;;5.90;;
7997;SDS011;4044;49.814;7.828;2022-07-23T11:55:30;6.95;;;6.45;;
7997;SDS011;4044;49.814;7.828;2022-07-23T11:57:56;6.85;;;6.30;;
7997;SDS011;4044;49.814;7.828;2022-07-23T12:00:23;6.53;;;6.03;;
7997;SDS011;4044;49.814;7.828;2022-07-23T12:02:55;7.15;;;6.43;;
7997;SDS011;4044;49.814;7.828;2022-07-23T12:05:28;6.50;;;6.00;;
7997;SDS011;4044;49.814;7.828;2022-07-23T12:07:56;6.82;;;6.20;;
7997;SDS011;4044;49.814;7.828;2022-07-23T12:12:53;7.13;;;6.45;;
7997;SDS011;4044;49.814;7.828;2022-07-23T12:15:24;6.30;;;5.80;;
7997;SDS011;4044;49.814;7.828;2022-07-23T12:18:03;6.32;;;5.82;;
7997;SDS011;4044;49.814;7.828;2022-07-23T12:20:41;7.25;;;6.70;;
7997;SDS011;4044;49.814;7.828;2022-07-23T12:23:12;6.88;;;6.25;;
7997;SDS011;4044;49.814;7.828;2022-07-23T12:25:40;7.07;;;6.38;;
7997;SDS011;4044;49.814;7.828;2022-07-23T12:28:11;6.53;;;6.13;;
7997;SDS011;4044;49.814;7.828;2022-07-23T12:30:40;6.43;;;6.00;;
7997;SDS011;4044;49.814;7.828;2022-07-23T12:33:06;7.30;;;6.30;;
7997;SDS011;4044;49.814;7.828;2022-07-23T12:35:34;7.18;;;6.68;;
7997;SDS011;4044;49.814;7.828;2022-07-23T12:38:07;6.65;;;6.15;;
7997;SDS011;4044;49.814;7.828;2022-07-23T12:48:16;7.30;;;6.60;;
7997;SDS011;4044;49.814;7.828;2022-07-23T12:50:54;6.78;;;6.28;;
7997;SDS011;4044;49.814;7.828;2022-07-23T12:53:28;7.53;;;6.82;;
7997;SDS011;4044;49.814;7.828;2022-07-23T12:58:48;7.35;;;6.60;;
7997;SDS011;4044;49.814;7.828;2022-07-23T13:06:53;6.85;;;6.40;;
7997;SDS011;4044;49.814;7.828;2022-07-23T13:09:27;6.82;;;6.43;;
7997;SDS011;4044;49.814;7.828;2022-07-23T13:11:54;6.10;;;5.70;;
7997;SDS011;4044;49.814;7.828;2022-07-23T13:14:21;7.32;;;6.78;;
7997;SDS011;4044;49.814;7.828;2022-07-23T13:16:48;6.18;;;5.85;;
7997;SDS011;4044;49.814;7.828;2022-07-23T13:19:15;6.50;;;6.00;;
7997;SDS011;4044;49.814;7.828;2022-07-23T13:21:41;6.47;;;5.97;;
7997;SDS011;4044;49.814;7.828;2022-07-23T13:24:07;6.50;;;6.07;;
7997;SDS011;4044;49.814;7.828;2022-07-23T13:26:35;6.50;;;6.07;;
7997;SDS011;4044;49.814;7.828;2022-07-23T13:29:01;6.75;;;6.20;;
7997;SDS011;4044;49.814;7.828;2022-07-23T13:31:26;6.55;;;6.13;;
7997;SDS011;4044;49.814;7.828;2022-07-23T13:33:52;6.72;;;6.13;;
7997;SDS011;4044;49.814;7.828;2022-07-23T13:36:17;6.78;;;6.35;;
7997;SDS011;4044;49.814;7.828;2022-07-23T13:38:43;6.43;;;5.80;;
7997;SDS011;4044;49.814;7.828;2022-07-23T13:41:09;6.72;;;6.13;;
7997;SDS011;4044;49.814;7.828;2022-07-23T13:43:34;7.00;;;6.40;;
7997;SDS011;4044;49.814;7.828;2022-07-23T13:46:00;6.85;;;6.35;;
7997;SDS011;4044;49.814;7.828;2022-07-23T13:48:25;6.60;;;6.10;;
7997;SDS011;4044;49.814;7.828;2022-07-23T13:50:51;6.85;;;6.45;;
7997;SDS011;4044;49.814;7.828;2022-07-23T13:53:18;6.40;;;5.80;;
7997;SDS011;4044;49.814;7.828;2022-07-23T13:55:46;6.57;;;6.18;;
7997;SDS011;4044;49.814;7.828;2022-07-23T13:58:13;6.45;;;6.00;;
7997;SDS011;4044;49.814;7.828;2022-07-23T14:00:40;7.28;;;6.60;;
7997;SDS011;4044;49.814;7.828;2022-07-23T14:03:17;6.85;;;6.38;;
7997;SDS011;4044;49.814;7.828;2022-07-23T14:05:44;6.72;;;5.85;;
7997;SDS011;4044;49.814;7.828;2022-07-23T14:08:10;6.45;;;5.95;;
7997;SDS011;4044;49.814;7.828;2022-07-23T14:10:35;5.85;;;5.47;;
7997;SDS011;4044;49.814;7.828;2022-07-23T14:13:01;6.70;;;6.10;;
7997;SDS011;4044;49.814;7.828;2022-07-23T14:15:28;6.07;;;5.68;;
7997;SDS011;4044;49.814;7.828;2022-07-23T14:17:55;6.30;;;5.88;;
7997;SDS011;4044;49.814;7.828;2022-07-23T14:20:21;6.15;;;5.75;;
7997;SDS011;4044;49.814;7.828;2022-07-23T14:22:47;6.47;;;6.00;;
7997;SDS011;4044;49.814;7.828;2022-07-23T14:25:14;5.97;;;5.53;;
7997;SDS011;4044;49.814;7.828;2022-07-23T14:27:40;6.13;;;5.63;;
7997;SDS011;4044;49.814;7.828;2022-07-23T14:30:06;7.88;;;6.38;;
7997;SDS011;4044;49.814;7.828;2022-07-23T14:32:33;6.25;;;5.78;;
7997;SDS011;4044;49.814;7.828;2022-07-23T14:34:59;6.20;;;5.70;;
7997;SDS011;4044;49.814;7.828;2022-07-23T14:37:24;6.53;;;5.90;;
7997;SDS011;4044;49.814;7.828;2022-07-23T14:39:50;6.38;;;5.88;;
7997;SDS011;4044;49.814;7.828;2022-07-23T14:42:16;6.35;;;5.85;;
7997;SDS011;4044;49.814;7.828;2022-07-23T14:44:42;6.00;;;5.55;;
7997;SDS011;4044;49.814;7.828;2022-07-23T14:47:07;5.93;;;5.53;;
7997;SDS011;4044;49.814;7.828;2022-07-23T14:49:33;6.40;;;5.85;;
7997;SDS011;4044;49.814;7.828;2022-07-23T14:51:59;6.43;;;5.85;;
7997;SDS011;4044;49.814;7.828;2022-07-23T14:54:26;6.53;;;5.82;;
7997;SDS011;4044;49.814;7.828;2022-07-23T14:56:56;6.45;;;5.97;;
7997;SDS011;4044;49.814;7.828;2022-07-23T14:59:23;6.20;;;5.70;;
7997;SDS011;4044;49.814;7.828;2022-07-23T15:01:49;6.07;;;5.57;;
7997;SDS011;4044;49.814;7.828;2022-07-23T15:04:15;5.55;;;5.10;;
7997;SDS011;4044;49.814;7.828;2022-07-23T15:06:41;6.07;;;5.68;;
7997;SDS011;4044;49.814;7.828;2022-07-23T15:09:07;5.55;;;5.05;;
7997;SDS011;4044;49.814;7.828;2022-07-23T15:11:33;7.03;;;4.97;;
7997;SDS011;4044;49.814;7.828;2022-07-23T15:14:02;5.85;;;5.40;;
7997;SDS011;4044;49.814;7.828;2022-07-23T15:16:29;6.20;;;5.43;;
7997;SDS011;4044;49.814;7.828;2022-07-23T15:18:54;5.60;;;5.20;;
7997;SDS011;4044;49.814;7.828;2022-07-23T15:21:20;5.80;;;5.43;;
7997;SDS011;4044;49.814;7.828;2022-07-23T15:23:46;5.82;;;5.43;;
7997;SDS011;4044;49.814;7.828;2022-07-23T15:26:11;5.53;;;5.07;;
7997;SDS011;4044;49.814;7.828;2022-07-23T15:28:39;5.50;;;5.10;;
7997;SDS011;4044;49.814;7.828;2022-07-23T15:31:04;5.90;;;5.40;;
7997;SDS011;4044;49.814;7.828;2022-07-23T15:33:30;5.65;;;5.25;;
7997;SDS011;4044;49.814;7.828;2022-07-23T15:35:56;5.45;;;4.97;;
7997;SDS011;4044;49.814;7.828;2022-07-23T15:38:23;5.32;;;4.97;;
7997;SDS011;4044;49.814;7.828;2022-07-23T15:40:49;5.95;;;5.45;;
7997;SDS011;4044;49.814;7.828;2022-07-23T15:43:14;5.93;;;5.32;;
7997;SDS011;4044;49.814;7.828;2022-07-23T15:45:40;5.18;;;4.88;;
7997;SDS011;4044;49.814;7.828;2022-07-23T15:48:05;5.40;;;5.10;;
7997;SDS011;4044;49.814;7.828;2022-07-23T15:50:31;5.53;;;5.20;;
7997;SDS011;4044;49.814;7.828;2022-07-23T15:52:57;5.65;;;5.25;;
7997;SDS011;4044;49.814;7.828;2022-07-23T15:55:23;5.88;;;5.20;;
7997;SDS011;4044;49.814;7.828;2022-07-23T15:57:49;5.47;;;5.03;;
7997;SDS011;4044;49.814;7.828;2022-07-23T16:00:15;6.00;;;5.40;;